Hartney, Canada
Current Conditions -  °F | °C
As of 4:00 AM on Monday 26 Jan 2015 (Local Time) from CYBR Reporting Station
Clear Clear  
Wind Chill: 22°   Ceiling: Unl
Heat Index: 34°   Visibility: 15mi
Dew Point: 28°   Wind: 21mph
Humidity: 81%   Direction: 300°WNW
Pressure: 29.64"   Gusts: NA
Location:  49.48°N, 100.52°W
Report Text: CYBR 261000Z 30018KT 15SM SKC 01/M02 A2964 RMK SLP062
Loading
Personal Weather Stations






























Interactive Weather Map New forecast layout! Learn more

10-Day Weather Forecast

Advertisements
Track Severe Weather on mobile